New Plymouth, Idaho
Current Conditions -  °F | °C
As of 3:53 PM on Monday 22 Dec 2014 (Local Time) from KONO Reporting Station
Clear Clear  
Wind Chill:   Ceiling: Unl
Heat Index:   Visibility: 10mi
Dew Point: -3°   Wind: 14mph
Humidity: 44%   Direction: 330°NNW
Pressure: 30.26"   Gusts: 22mph
Location:  43.97°N, 116.82°W
Report Text: KONO 222253Z AUTO 33012G19KT 10SM CLR 09/M03 A3026 RMK AO2 SLP259 T00891028
Loading
Personal Weather Stations






























Interactive Weather Map New forecast layout! Learn more

10-Day Weather Forecast

Advertisements
Track Severe Weather on mobile